createdAt,value
2023-01-18T00:00:39.365Z,1.15
2023-01-18T00:03:08.863Z,0.88
2023-01-18T00:05:41.012Z,1.13
2023-01-18T00:08:08.692Z,1.45
2023-01-18T00:10:35.342Z,0.88
2023-01-18T00:13:02.282Z,0.77
2023-01-18T00:15:29.109Z,0.68
2023-01-18T00:17:55.755Z,1.00
2023-01-18T00:20:25.485Z,1.30
2023-01-18T00:22:52.637Z,1.10
2023-01-18T00:25:21.086Z,1.13
2023-01-18T00:27:53.395Z,0.90
2023-01-18T00:30:25.931Z,1.02
2023-01-18T00:32:58.601Z,1.23
2023-01-18T00:35:26.107Z,1.35
2023-01-18T00:37:53.915Z,0.95
2023-01-18T00:40:23.695Z,1.10
2023-01-18T00:43:08.823Z,0.60
2023-01-18T00:45:35.629Z,0.80
2023-01-18T00:48:02.758Z,0.82
2023-01-18T00:50:29.852Z,1.50
2023-01-18T00:52:58.593Z,2.22
2023-01-18T00:55:26.048Z,1.42
2023-01-18T00:57:52.763Z,0.77
2023-01-18T01:00:20.372Z,1.08
2023-01-18T01:02:47.092Z,1.00
2023-01-18T01:05:37.478Z,0.82
2023-01-18T01:08:05.809Z,1.08
2023-01-18T01:10:34.116Z,1.30
2023-01-18T01:13:19.911Z,1.42
2023-01-18T01:16:05.293Z,0.90
2023-01-18T01:18:50.675Z,1.00
2023-01-18T01:21:36.378Z,0.98
2023-01-18T01:24:21.873Z,1.38
2023-01-18T01:26:48.539Z,0.95
2023-01-18T01:29:15.982Z,0.90
2023-01-18T01:31:42.724Z,1.08
2023-01-18T01:34:10.202Z,1.27
2023-01-18T01:36:37.093Z,0.80
2023-01-18T01:39:04.720Z,1.23
2023-01-18T01:41:33.743Z,1.23
2023-01-18T01:44:24.384Z,0.77
2023-01-18T01:46:57.624Z,0.95
2023-01-18T01:49:32.840Z,0.90
2023-01-18T01:52:05.391Z,0.80
2023-01-18T01:54:37.836Z,0.90
2023-01-18T01:57:12.190Z,1.05
2023-01-18T01:59:45.119Z,1.02
2023-01-18T02:02:12.208Z,1.20
2023-01-18T02:04:44.207Z,1.23
2023-01-18T02:07:14.020Z,1.00
2023-01-18T02:09:41.629Z,0.75
2023-01-18T02:12:08.301Z,0.93
2023-01-18T02:14:35.907Z,1.10
2023-01-18T02:17:32.779Z,0.65
2023-01-18T02:20:08.936Z,1.00
2023-01-18T02:22:44.708Z,1.15
2023-01-18T02:25:28.747Z,0.82
2023-01-18T02:28:13.694Z,0.95
2023-01-18T02:31:03.382Z,0.93
2023-01-18T02:33:50.969Z,1.00
2023-01-18T02:36:33.480Z,0.75
2023-01-18T02:39:23.277Z,0.95
2023-01-18T02:42:16.715Z,0.90
2023-01-18T02:45:05.199Z,0.80
2023-01-18T02:47:32.996Z,0.43
2023-01-18T02:49:59.687Z,0.90
2023-01-18T02:52:51.138Z,1.02
2023-01-18T02:55:31.711Z,1.00
2023-01-18T02:58:34.573Z,0.90
2023-01-18T03:01:15.007Z,0.95
2023-01-18T03:03:46.060Z,1.60
2023-01-18T03:06:13.792Z,0.77
2023-01-18T03:08:48.301Z,1.13
2023-01-18T03:11:39.406Z,0.70
2023-01-18T03:14:21.010Z,0.70
2023-01-18T03:20:06.222Z,1.10
2023-01-18T03:23:24.644Z,0.70
2023-01-18T03:25:54.895Z,0.57
2023-01-18T03:28:48.160Z,0.82
2023-01-18T03:31:38.035Z,0.85
2023-01-18T03:34:17.684Z,0.88
2023-01-18T03:36:48.074Z,0.80
2023-01-18T03:39:32.776Z,0.82
2023-01-18T03:42:06.092Z,0.80
2023-01-18T03:44:40.002Z,0.88
2023-01-18T03:47:07.723Z,0.68
2023-01-18T03:49:35.085Z,0.90
2023-01-18T03:52:20.156Z,0.80
2023-01-18T03:54:54.307Z,0.63
2023-01-18T03:57:35.565Z,1.02
2023-01-18T04:00:05.997Z,0.70
2023-01-18T04:02:32.778Z,0.88
2023-01-18T04:05:03.524Z,0.80
2023-01-18T04:07:31.782Z,0.88
2023-01-18T04:09:59.380Z,0.88
2023-01-18T04:12:26.607Z,0.73
2023-01-18T04:14:53.578Z,0.60
2023-01-18T04:17:20.534Z,0.90
2023-01-18T04:19:47.211Z,0.75
2023-01-18T04:22:13.985Z,0.70
2023-01-18T04:24:40.678Z,0.88
2023-01-18T04:27:08.150Z,1.25
2023-01-18T04:29:34.802Z,0.80
2023-01-18T04:32:01.555Z,0.73
2023-01-18T04:34:28.314Z,0.73
2023-01-18T04:36:55.091Z,1.02
2023-01-18T04:39:21.745Z,0.80
2023-01-18T04:41:48.413Z,0.88
2023-01-18T04:44:15.437Z,0.90
2023-01-18T04:46:42.105Z,1.08
2023-01-18T04:49:16.321Z,0.73
2023-01-18T04:51:44.867Z,0.70
2023-01-18T04:54:12.997Z,1.08
2023-01-18T04:56:39.850Z,1.30
2023-01-18T04:59:06.588Z,1.70
2023-01-18T05:01:33.738Z,1.10
2023-01-18T05:04:01.626Z,1.08
2023-01-18T05:06:28.300Z,0.90
2023-01-18T05:08:54.961Z,0.85
2023-01-18T05:11:23.302Z,0.90
2023-01-18T05:13:50.279Z,1.08
2023-01-18T05:16:22.680Z,0.73
2023-01-18T05:18:49.808Z,1.00
2023-01-18T05:21:17.095Z,0.65
2023-01-18T05:23:43.910Z,0.77
2023-01-18T05:26:17.336Z,0.60
2023-01-18T05:28:44.752Z,0.73
2023-01-18T05:31:13.355Z,0.70
2023-01-18T05:33:40.245Z,0.60
2023-01-18T05:36:07.593Z,1.02
2023-01-18T05:38:34.471Z,0.75
2023-01-18T05:41:01.527Z,0.80
2023-01-18T05:43:29.050Z,1.05
2023-01-18T05:45:56.210Z,0.88
2023-01-18T05:48:24.087Z,1.00
2023-01-18T05:50:50.848Z,0.40
2023-01-18T05:53:21.320Z,1.45
2023-01-18T05:56:01.373Z,0.60
2023-01-18T05:58:28.773Z,0.73
2023-01-18T06:00:56.035Z,0.85
2023-01-18T06:03:25.119Z,0.90
2023-01-18T06:05:52.516Z,0.73
2023-01-18T06:08:20.029Z,0.73
2023-01-18T06:10:54.305Z,0.63
2023-01-18T06:13:22.765Z,0.80
2023-01-18T06:15:49.773Z,1.13
2023-01-18T06:18:16.572Z,0.90
2023-01-18T06:20:43.450Z,0.77
2023-01-18T06:23:10.118Z,0.75
2023-01-18T06:25:36.816Z,0.90
2023-01-18T06:28:05.044Z,0.80
2023-01-18T06:30:33.871Z,1.38
2023-01-18T06:33:04.915Z,0.85
2023-01-18T06:35:31.629Z,0.90
2023-01-18T06:37:58.979Z,0.85
2023-01-18T06:40:26.144Z,0.90
2023-01-18T06:42:52.833Z,0.98
2023-01-18T06:45:22.003Z,0.68
2023-01-18T06:47:49.391Z,0.95
2023-01-18T06:50:16.837Z,1.13
2023-01-18T06:52:44.599Z,0.95
2023-01-18T06:55:13.052Z,0.93
2023-01-18T06:57:39.913Z,0.98
2023-01-18T07:00:07.928Z,0.95
2023-01-18T07:02:35.781Z,0.95
2023-01-18T07:05:03.579Z,0.63
2023-01-18T07:07:31.046Z,0.80
2023-01-18T07:09:57.711Z,0.70
2023-01-18T07:12:24.486Z,0.70
2023-01-18T07:14:51.265Z,0.77
2023-01-18T07:17:17.974Z,1.00
2023-01-18T07:19:44.985Z,1.00
2023-01-18T07:22:13.222Z,1.02
2023-01-18T07:24:39.975Z,0.50
2023-01-18T07:27:06.617Z,0.73
2023-01-18T07:29:33.288Z,0.50
2023-01-18T07:32:01.144Z,0.50
2023-01-18T07:34:28.050Z,0.32
2023-01-18T07:36:55.308Z,0.50
2023-01-18T07:39:22.100Z,0.40
2023-01-18T07:41:48.800Z,0.40
2023-01-18T07:44:15.763Z,0.40
2023-01-18T07:46:43.288Z,0.60
2023-01-18T07:49:10.150Z,0.50
2023-01-18T07:51:36.933Z,0.38
2023-01-18T07:54:03.705Z,0.43
2023-01-18T07:56:30.888Z,0.40
2023-01-18T07:58:57.628Z,0.43
2023-01-18T08:01:24.651Z,0.68
2023-01-18T08:03:53.554Z,0.52
2023-01-18T08:06:25.104Z,0.40
2023-01-18T08:08:52.629Z,0.50
2023-01-18T08:11:19.655Z,0.55
2023-01-18T08:13:48.857Z,0.30
2023-01-18T08:16:16.266Z,0.47
2023-01-18T08:18:45.202Z,0.20
2023-01-18T08:21:13.488Z,0.40
2023-01-18T08:23:40.712Z,0.50
2023-01-18T08:26:08.937Z,0.40
2023-01-18T08:28:35.964Z,0.35
2023-01-18T08:31:25.126Z,0.50
2023-01-18T08:33:53.151Z,0.20
2023-01-18T08:36:22.315Z,0.47
2023-01-18T08:38:55.548Z,0.55
2023-01-18T08:41:28.029Z,0.45
2023-01-18T08:43:55.933Z,0.50
2023-01-18T08:46:23.165Z,0.65
2023-01-18T08:48:54.679Z,0.50
2023-01-18T08:51:23.157Z,0.50
2023-01-18T08:53:51.636Z,0.68
2023-01-18T08:56:19.360Z,0.70
2023-01-18T08:58:47.467Z,0.60
2023-01-18T09:01:14.237Z,1.00
2023-01-18T09:03:41.972Z,0.60
2023-01-18T09:06:11.794Z,0.50
2023-01-18T09:08:39.813Z,0.57
2023-01-18T09:11:09.708Z,0.43
2023-01-18T09:13:38.453Z,0.77
2023-01-18T09:16:11.203Z,0.80
2023-01-18T09:18:38.331Z,1.02
2023-01-18T09:21:07.175Z,0.57
2023-01-18T09:23:34.765Z,0.60
2023-01-18T09:26:07.494Z,0.52
2023-01-18T09:28:34.395Z,0.60
2023-01-18T09:31:08.763Z,0.50
2023-01-18T09:33:38.219Z,0.63
2023-01-18T09:36:10.690Z,0.50
2023-01-18T09:38:39.832Z,0.90
2023-01-18T09:41:24.187Z,0.52
2023-01-18T09:43:55.117Z,1.27
2023-01-18T09:46:23.214Z,0.70
2023-01-18T09:48:55.883Z,0.50
2023-01-18T09:51:28.034Z,0.40
2023-01-18T09:54:04.551Z,0.80
2023-01-18T09:56:41.343Z,1.05
2023-01-18T09:59:40.806Z,0.90
2023-01-18T10:02:21.320Z,0.70
2023-01-18T10:04:53.729Z,0.45
2023-01-18T10:07:22.621Z,0.70
2023-01-18T10:09:53.229Z,1.10
2023-01-18T10:12:43.588Z,2.15
2023-01-18T10:15:22.262Z,2.95
2023-01-18T10:17:52.068Z,2.10
2023-01-18T10:20:33.974Z,9.82
2023-01-18T10:23:46.369Z,3.13
2023-01-18T10:26:21.838Z,1.80
2023-01-18T10:29:17.633Z,3.15
2023-01-18T10:31:58.830Z,2.33
2023-01-18T10:34:34.644Z,1.45
2023-01-18T10:37:16.940Z,1.33
2023-01-18T10:39:57.610Z,1.75
2023-01-18T10:42:31.068Z,1.65
2023-01-18T10:44:57.846Z,1.65
2023-01-18T10:47:24.493Z,1.08
2023-01-18T10:49:58.634Z,2.45
2023-01-18T10:52:31.324Z,1.70
2023-01-18T10:55:07.542Z,1.70
2023-01-18T10:57:46.019Z,3.55
2023-01-18T11:00:27.792Z,4.05
2023-01-18T11:02:55.864Z,3.53
2023-01-18T11:05:30.762Z,1.75
2023-01-18T11:08:34.207Z,1.80
2023-01-18T11:11:04.093Z,1.50
2023-01-18T11:13:45.705Z,2.05
2023-01-18T11:19:20.349Z,2.97
2023-01-18T11:21:51.940Z,2.35
2023-01-18T11:24:26.148Z,1.10
2023-01-18T11:27:07.468Z,1.75
2023-01-18T11:29:42.657Z,0.90
2023-01-18T11:32:26.415Z,0.77
2023-01-18T11:34:58.719Z,1.40
2023-01-18T11:37:36.960Z,1.60
2023-01-18T11:40:18.949Z,2.17
2023-01-18T11:42:47.105Z,1.67
2023-01-18T11:45:32.335Z,2.00
2023-01-18T11:49:00.607Z,1.88
2023-01-18T11:51:38.830Z,1.80
2023-01-18T11:54:16.330Z,1.30
2023-01-18T11:56:48.023Z,2.35
2023-01-18T11:59:26.513Z,2.50
2023-01-18T12:02:25.590Z,2.17
2023-01-18T12:05:10.659Z,1.92
2023-01-18T12:08:02.752Z,2.22
2023-01-18T12:10:52.056Z,2.53
2023-01-18T12:13:34.155Z,1.60
2023-01-18T12:16:22.400Z,2.65
2023-01-18T12:19:18.321Z,3.78
2023-01-18T12:22:03.831Z,1.52
2023-01-18T12:24:49.379Z,2.25
2023-01-18T12:27:21.989Z,2.28
2023-01-18T12:29:54.452Z,3.65
2023-01-18T12:32:34.847Z,2.60
2023-01-18T12:35:23.802Z,2.88
2023-01-18T12:38:15.393Z,2.90
2023-01-18T12:41:00.048Z,1.67
2023-01-18T12:43:33.749Z,2.08
2023-01-18T12:46:14.623Z,1.88
2023-01-18T12:48:51.277Z,1.73
2023-01-18T12:51:22.199Z,1.85
2023-01-18T12:53:55.731Z,3.20
2023-01-18T12:56:34.343Z,1.58
2023-01-18T12:59:08.335Z,2.85
2023-01-18T13:01:42.103Z,2.83
2023-01-18T13:04:20.747Z,2.20
2023-01-18T13:06:51.729Z,3.33
2023-01-18T13:09:25.989Z,2.22
2023-01-18T13:11:52.933Z,2.67
2023-01-18T13:14:33.599Z,3.47
2023-01-18T13:17:05.487Z,3.43
2023-01-18T13:20:17.889Z,1.50
2023-01-18T13:22:53.674Z,1.35
2023-01-18T13:25:37.995Z,1.90
2023-01-18T13:28:25.561Z,2.75
2023-01-18T13:30:56.943Z,5.95
2023-01-18T13:35:58.345Z,3.22
2023-01-18T13:38:40.765Z,4.65
2023-01-18T13:41:11.548Z,2.25
2023-01-18T13:43:38.163Z,2.33
2023-01-18T13:46:08.082Z,3.22
2023-01-18T13:48:47.161Z,3.50
2023-01-18T13:51:42.569Z,3.65
2023-01-18T13:54:12.546Z,3.13
2023-01-18T13:56:40.059Z,3.60
2023-01-18T13:59:12.864Z,1.77
2023-01-18T14:01:45.883Z,2.75
2023-01-18T14:04:31.892Z,1.98
2023-01-18T14:07:04.662Z,2.30
2023-01-18T14:09:38.756Z,1.73
2023-01-18T14:12:07.184Z,1.77
2023-01-18T14:14:51.287Z,2.42
2023-01-18T14:17:18.683Z,2.83
2023-01-18T14:19:48.380Z,3.13
2023-01-18T14:22:37.160Z,2.40
2023-01-18T14:25:25.298Z,2.65
2023-01-18T14:28:08.044Z,2.20
2023-01-18T14:30:37.998Z,1.90
2023-01-18T14:33:24.536Z,3.38
2023-01-18T14:35:59.120Z,2.83
2023-01-18T14:38:26.634Z,2.22
2023-01-18T14:40:59.407Z,1.40
2023-01-18T14:43:35.280Z,2.17
2023-01-18T14:46:10.007Z,3.95
2023-01-18T14:48:56.084Z,3.38
2023-01-18T14:51:25.137Z,2.72
2023-01-18T14:54:00.701Z,2.53
2023-01-18T14:56:29.394Z,2.50
2023-01-18T14:59:20.749Z,2.15
2023-01-18T15:01:53.965Z,1.95
2023-01-18T15:04:26.889Z,1.60
2023-01-18T15:06:58.716Z,1.80
2023-01-18T15:09:28.284Z,1.83
2023-01-18T15:12:01.278Z,1.85
2023-01-18T15:14:34.591Z,1.88
2023-01-18T15:17:05.423Z,4.15
2023-01-18T15:19:45.827Z,2.72
2023-01-18T15:22:15.494Z,2.10
2023-01-18T15:24:44.285Z,1.75
2023-01-18T15:27:19.661Z,1.90
2023-01-18T15:29:49.220Z,2.05
2023-01-18T15:32:20.565Z,2.80
2023-01-18T15:34:49.248Z,2.35
2023-01-18T15:37:30.231Z,1.88
2023-01-18T15:39:57.686Z,2.92
2023-01-18T15:42:29.587Z,2.22
2023-01-18T15:44:58.117Z,1.98
2023-01-18T15:47:26.720Z,2.05
2023-01-18T15:49:56.611Z,2.00
2023-01-18T15:52:39.072Z,2.10
2023-01-18T15:55:08.718Z,2.60
2023-01-18T15:57:36.647Z,2.22
2023-01-18T16:00:05.873Z,2.40
2023-01-18T16:02:32.998Z,4.78
2023-01-18T16:05:29.392Z,1.67
2023-01-18T16:08:31.545Z,1.90
2023-01-18T16:10:58.515Z,3.00
2023-01-18T16:13:37.521Z,3.90
2023-01-18T16:16:10.465Z,5.00
2023-01-18T16:18:37.306Z,3.28
2023-01-18T16:21:12.647Z,5.45
2023-01-18T16:23:44.345Z,3.03
2023-01-18T16:26:13.415Z,6.25
2023-01-18T16:28:40.237Z,4.45
2023-01-18T16:31:07.203Z,3.25
2023-01-18T16:33:34.009Z,3.22
2023-01-18T16:36:02.982Z,3.00
2023-01-18T16:38:29.809Z,2.25
2023-01-18T16:40:59.050Z,2.72
2023-01-18T16:43:29.562Z,5.25
2023-01-18T16:45:58.994Z,2.92
2023-01-18T16:48:27.430Z,4.57
2023-01-18T16:50:56.013Z,5.35
2023-01-18T16:53:22.974Z,6.15
2023-01-18T16:55:49.915Z,3.58
2023-01-18T16:58:18.734Z,3.00
2023-01-18T17:01:13.879Z,3.72
2023-01-18T17:03:40.843Z,8.07
2023-01-18T17:06:10.313Z,3.00
2023-01-18T17:08:37.366Z,3.72
2023-01-18T17:11:04.641Z,2.40
2023-01-18T17:13:31.359Z,2.47
2023-01-18T17:15:58.051Z,2.95
2023-01-18T17:18:26.980Z,3.63
2023-01-18T17:20:54.693Z,2.72
2023-01-18T17:23:21.506Z,3.08
2023-01-18T17:25:49.005Z,2.33
2023-01-18T17:28:17.892Z,2.28
2023-01-18T17:30:47.115Z,2.40
2023-01-18T17:33:20.331Z,2.33
2023-01-18T17:35:48.580Z,2.72
2023-01-18T17:38:23.204Z,3.53
2023-01-18T17:40:51.281Z,3.65
2023-01-18T17:43:28.500Z,3.35
2023-01-18T17:46:02.414Z,2.75
2023-01-18T17:48:29.511Z,2.15
2023-01-18T17:50:56.217Z,2.78
2023-01-18T17:53:22.870Z,3.45
2023-01-18T17:55:49.944Z,3.00
2023-01-18T17:58:16.601Z,2.08
2023-01-18T18:00:43.232Z,2.20
2023-01-18T18:03:10.228Z,2.40
2023-01-18T18:05:36.989Z,2.13
2023-01-18T18:08:03.768Z,2.72
2023-01-18T18:10:31.100Z,2.40
2023-01-18T18:12:58.294Z,2.00
2023-01-18T18:15:25.262Z,1.52
2023-01-18T18:17:51.936Z,1.83
2023-01-18T18:20:18.611Z,2.13
2023-01-18T18:22:45.310Z,1.80
2023-01-18T18:25:11.980Z,1.95
2023-01-18T18:27:47.304Z,1.73
2023-01-18T18:30:15.133Z,2.00
2023-01-18T18:32:41.931Z,2.65
2023-01-18T18:35:23.677Z,2.20
2023-01-18T18:37:51.641Z,2.45
2023-01-18T18:40:18.955Z,2.17
2023-01-18T18:42:59.902Z,2.03
2023-01-18T18:45:27.891Z,1.70
2023-01-18T18:47:54.530Z,1.55
2023-01-18T18:50:21.194Z,1.83
2023-01-18T18:52:47.972Z,1.88
2023-01-18T18:55:14.685Z,2.92
2023-01-18T18:57:41.474Z,3.40
2023-01-18T19:00:08.807Z,2.90
2023-01-18T19:02:35.687Z,3.03
2023-01-18T19:05:03.309Z,2.53
2023-01-18T19:07:30.079Z,1.77
2023-01-18T19:09:56.714Z,2.13
2023-01-18T19:12:23.497Z,1.73
2023-01-18T19:14:50.168Z,1.80
2023-01-18T19:17:28.977Z,2.38
2023-01-18T19:19:56.877Z,1.38
2023-01-18T19:22:23.566Z,1.58
2023-01-18T19:24:50.440Z,1.42
2023-01-18T19:27:17.211Z,1.70
2023-01-18T19:29:43.948Z,1.50
2023-01-18T19:32:10.645Z,1.90
2023-01-18T19:34:38.440Z,1.40
2023-01-18T19:37:05.633Z,1.70
2023-01-18T19:39:34.816Z,1.40
2023-01-18T19:42:02.497Z,1.65
2023-01-18T19:44:29.230Z,1.27
2023-01-18T19:46:56.956Z,1.52
2023-01-18T19:49:26.538Z,2.35
2023-01-18T19:51:54.595Z,2.20
2023-01-18T19:54:21.872Z,2.20
2023-01-18T19:56:48.800Z,1.60
2023-01-18T19:59:15.998Z,1.55
2023-01-18T20:01:43.599Z,1.50
2023-01-18T20:04:12.826Z,1.55
2023-01-18T20:06:39.740Z,1.45
2023-01-18T20:09:15.801Z,1.38
2023-01-18T20:11:45.172Z,1.50
2023-01-18T20:14:12.174Z,1.40
2023-01-18T20:16:39.080Z,1.60
2023-01-18T20:19:05.833Z,1.80
2023-01-18T20:21:32.955Z,1.50
2023-01-18T20:23:59.940Z,1.55
2023-01-18T20:26:35.806Z,1.90
2023-01-18T20:29:06.743Z,1.35
2023-01-18T20:31:36.091Z,1.38
2023-01-18T20:34:03.727Z,1.67
2023-01-18T20:36:30.856Z,1.20
2023-01-18T20:38:57.549Z,1.52
2023-01-18T20:41:24.231Z,1.48
2023-01-18T20:43:51.141Z,1.48
2023-01-18T20:46:18.064Z,1.35
2023-01-18T20:48:44.859Z,1.30
2023-01-18T20:51:11.537Z,1.25
2023-01-18T20:53:38.259Z,1.27
2023-01-18T20:56:23.307Z,1.42
2023-01-18T20:58:54.670Z,1.00
2023-01-18T21:01:21.528Z,1.00
2023-01-18T21:03:54.097Z,1.10
2023-01-18T21:06:20.798Z,1.10
2023-01-18T21:08:47.495Z,1.10
2023-01-18T21:11:17.569Z,0.90
2023-01-18T21:13:44.361Z,0.98
2023-01-18T21:16:11.206Z,1.27
2023-01-18T21:18:39.392Z,1.30
2023-01-18T21:21:07.344Z,1.00
2023-01-18T21:23:39.497Z,1.10
2023-01-18T21:26:08.948Z,0.85
2023-01-18T21:28:36.060Z,1.27
2023-01-18T21:31:02.889Z,1.13
2023-01-18T21:33:29.590Z,1.10
2023-01-18T21:36:01.925Z,1.10
2023-01-18T21:38:29.684Z,1.10
2023-01-18T21:40:56.384Z,1.45
2023-01-18T21:43:41.515Z,0.85
2023-01-18T21:46:11.055Z,1.20
2023-01-18T21:48:37.801Z,1.38
2023-01-18T21:51:23.948Z,1.20
2023-01-18T21:54:09.362Z,1.70
2023-01-18T21:56:39.196Z,1.40
2023-01-18T21:59:05.965Z,1.52
2023-01-18T22:01:35.061Z,1.30
2023-01-18T22:04:22.690Z,1.27
2023-01-18T22:06:49.393Z,1.30
2023-01-18T22:09:16.251Z,1.77
2023-01-18T22:11:43.380Z,1.40
2023-01-18T22:14:10.579Z,1.45
2023-01-18T22:16:37.640Z,1.60
2023-01-18T22:19:05.112Z,1.50
2023-01-18T22:21:32.597Z,1.50
2023-01-18T22:23:59.448Z,1.50
2023-01-18T22:26:28.784Z,1.65
2023-01-18T22:28:55.945Z,1.88
2023-01-18T22:31:22.809Z,1.77
2023-01-18T22:33:49.483Z,1.80
2023-01-18T22:36:16.559Z,1.90
2023-01-18T22:38:43.909Z,1.65
2023-01-18T22:41:13.413Z,2.15
2023-01-18T22:43:40.896Z,1.80
2023-01-18T22:46:10.138Z,1.75
2023-01-18T22:48:37.843Z,1.70
2023-01-18T22:51:07.209Z,1.90
2023-01-18T22:53:34.813Z,1.90
2023-01-18T22:56:03.550Z,1.75
2023-01-18T22:58:30.651Z,2.15
2023-01-18T23:01:02.043Z,1.80
2023-01-18T23:05:57.933Z,1.50
2023-01-18T23:08:38.227Z,2.40
2023-01-18T23:11:05.776Z,1.67
2023-01-18T23:13:32.479Z,1.92
2023-01-18T23:16:17.801Z,1.70
2023-01-18T23:18:44.466Z,2.10
2023-01-18T23:21:11.133Z,2.30
2023-01-18T23:23:40.644Z,2.38
2023-01-18T23:26:07.366Z,2.00
2023-01-18T23:28:43.091Z,2.53
2023-01-18T23:31:16.297Z,1.77
2023-01-18T23:33:43.594Z,1.80
2023-01-18T23:36:11.500Z,2.10
2023-01-18T23:38:57.148Z,2.08
2023-01-18T23:41:42.739Z,2.42
2023-01-18T23:44:28.067Z,2.08
2023-01-18T23:47:13.508Z,2.05
2023-01-18T23:49:58.954Z,2.20
2023-01-18T23:52:44.429Z,2.33
2023-01-18T23:55:11.149Z,2.30
2023-01-18T23:57:37.883Z,2.20
